Terminal Aerodrome Forecast
Issued by NWS Wichita, KS

Home | Current Version | Previous Version | Text Only | Print | Product List | Glossary On
Versions: 1 2 3 4 5 6 7 8 9 10 11 12 13 14 15 16
000
FTUS43 KICT 230500
TAFICT
TAF
KICT 230520Z 2306/2406 17006KT P6SM SKC
     FM230800 VRB03KT P6SM SKC
      TEMPO 2309/2313 4SM BR SCT025
     FM231400 04005KT P6SM SCT025
     FM231800 02004KT P6SM SKC=

USA.gov is the U.S. government's official web portal to all federal, state and local government web resources and services.